Time;durP1;ratioP1;P1;durP2;ratioP2;P2;SDS_P1;SDS_P2;PMS_P1;PMS_P2;Temp;Humidity;BMP_temperature;BMP_pressure;BME280_temperature;BME280_humidity;BME280_pressure;Samples;Min_cycle;Max_cycle;Signal;HPM_P1;HPM_P2
2021/04/14 00:00:47;;;;;;;4.10;2.27;;;7.70;49.90;;;;;;5070546;28;20679;-49
2021/04/14 00:03:17;;;;;;;3.40;2.40;;;7.60;50.20;;;;;;5068652;28;20691;-50
2021/04/14 00:05:44;;;;;;;4.10;2.80;;;7.60;50.70;;;;;;5073613;28;20647;-50
2021/04/14 00:08:11;;;;;;;2.80;2.53;;;7.60;50.70;;;;;;5072652;28;20689;-51
2021/04/14 00:10:38;;;;;;;4.50;2.50;;;7.60;50.80;;;;;;5072331;28;20621;-50
2021/04/14 00:13:09;;;;;;;6.23;3.60;;;7.60;51.00;;;;;;5073476;28;21212;-51
2021/04/14 00:15:39;;;;;;;6.43;2.60;;;7.50;51.10;;;;;;5073046;28;20666;-51
2021/04/14 00:18:06;;;;;;;4.43;3.40;;;7.50;51.40;;;;;;5073202;28;21102;-51
2021/04/14 00:20:33;;;;;;;3.93;3.43;;;7.40;51.50;;;;;;5073387;28;20728;-50
2021/04/14 00:23:00;;;;;;;4.67;2.50;;;7.40;52.00;;;;;;5074150;28;20676;-50
2021/04/14 00:25:28;;;;;;;4.73;4.03;;;7.40;52.00;;;;;;5070195;28;20731;-50
2021/04/14 00:27:54;;;;;;;4.60;3.00;;;7.40;52.20;;;;;;5068838;28;20659;-50
2021/04/14 00:30:22;;;;;;;3.30;2.57;;;7.30;52.30;;;;;;5070136;28;20609;-50
2021/04/14 00:32:49;;;;;;;3.67;2.90;;;7.30;52.60;;;;;;5072829;28;20753;-50
2021/04/14 00:35:16;;;;;;;3.03;2.43;;;7.30;52.80;;;;;;5073249;28;20661;-50
2021/04/14 00:37:44;;;;;;;4.67;2.80;;;7.20;53.10;;;;;;5072734;28;20626;-50
2021/04/14 00:40:13;;;;;;;4.83;3.23;;;7.20;53.20;;;;;;5072416;28;20641;-50
2021/04/14 00:42:39;;;;;;;4.00;2.70;;;7.30;53.60;;;;;;5072624;28;20625;-50
2021/04/14 00:45:07;;;;;;;4.83;2.80;;;7.30;53.50;;;;;;5072651;28;20689;-50
2021/04/14 00:47:34;;;;;;;7.60;2.90;;;7.20;53.50;;;;;;5072423;28;21141;-50
2021/04/14 00:50:01;;;;;;;3.00;2.67;;;7.20;53.80;;;;;;5072677;28;20659;-50
2021/04/14 00:52:28;;;;;;;3.93;3.60;;;7.20;54.10;;;;;;5071638;28;20722;-50
2021/04/14 00:54:55;;;;;;;3.77;2.77;;;7.30;56.00;;;;;;5072417;28;21283;-50
2021/04/14 00:57:22;;;;;;;4.07;2.87;;;7.30;55.50;;;;;;5073165;28;20627;-50
2021/04/14 00:59:49;;;;;;;3.43;2.70;;;7.30;55.50;;;;;;5072923;28;20669;-51
2021/04/14 01:02:15;;;;;;;3.70;2.80;;;7.30;55.60;;;;;;5073668;28;21190;-53
2021/04/14 01:04:43;;;;;;;4.33;3.20;;;7.40;55.10;;;;;;5071356;28;20714;-50
2021/04/14 01:07:10;;;;;;;3.77;2.83;;;7.30;54.70;;;;;;5072258;28;20622;-50
2021/04/14 01:09:36;;;;;;;4.47;2.97;;;7.30;55.10;;;;;;5071897;28;20736;-50
2021/04/14 01:12:05;;;;;;;2.70;2.20;;;7.20;54.70;;;;;;5071988;28;20685;-50
2021/04/14 01:14:32;;;;;;;3.40;2.93;;;7.20;54.80;;;;;;5072244;28;21222;-50
2021/04/14 01:16:59;;;;;;;3.23;2.93;;;7.20;54.80;;;;;;5072066;28;20637;-50
2021/04/14 01:19:25;;;;;;;5.33;3.10;;;7.20;55.00;;;;;;5071989;28;20691;-50
2021/04/14 01:21:53;;;;;;;3.40;3.13;;;7.10;55.20;;;;;;5068711;28;20672;-50
2021/04/14 01:24:20;;;;;;;3.90;3.50;;;7.10;55.30;;;;;;5066838;28;20645;-50
2021/04/14 01:26:47;;;;;;;4.30;2.67;;;7.10;55.30;;;;;;5068331;28;20762;-50
2021/04/14 01:29:14;;;;;;;5.17;3.30;;;7.10;56.00;;;;;;5071292;28;20660;-50
2021/04/14 01:31:41;;;;;;;8.10;2.93;;;7.10;55.80;;;;;;5072296;28;20703;-50
2021/04/14 01:34:12;;;;;;;3.33;3.00;;;7.00;55.50;;;;;;5071789;28;20641;-50
2021/04/14 01:36:38;;;;;;;5.03;3.33;;;7.00;55.60;;;;;;5071608;28;21018;-50
2021/04/14 01:39:07;;;;;;;4.50;2.50;;;6.90;55.60;;;;;;5070934;28;21182;-50
2021/04/14 01:41:34;;;;;;;4.07;3.70;;;7.00;55.90;;;;;;5072203;28;21015;-50
2021/04/14 01:44:01;;;;;;;3.30;2.70;;;7.00;56.00;;;;;;5071318;28;20710;-50
2021/04/14 01:46:28;;;;;;;3.77;2.67;;;6.90;56.00;;;;;;5072231;28;21235;-50
2021/04/14 01:48:54;;;;;;;3.47;3.17;;;6.90;56.20;;;;;;5071638;28;20641;-50
2021/04/14 01:51:21;;;;;;;3.93;3.23;;;7.00;56.30;;;;;;5072904;28;20707;-50
2021/04/14 01:53:48;;;;;;;7.87;2.73;;;7.00;56.20;;;;;;5072191;28;20629;-50
2021/04/14 01:56:16;;;;;;;3.90;3.47;;;7.00;56.30;;;;;;5070993;28;20665;-51
2021/04/14 01:58:43;;;;;;;3.87;2.83;;;7.00;56.20;;;;;;5071000;28;21255;-50
2021/04/14 02:01:10;;;;;;;5.83;3.60;;;6.90;56.30;;;;;;5071336;28;20613;-50
2021/04/14 02:03:38;;;;;;;5.07;3.30;;;6.80;56.40;;;;;;5071647;28;20617;-50
2021/04/14 02:06:06;;;;;;;3.57;2.80;;;6.80;56.60;;;;;;5056614;28;20658;-50
2021/04/14 02:08:32;;;;;;;4.23;2.80;;;6.70;56.70;;;;;;5053948;28;20609;-50
2021/04/14 02:10:59;;;;;;;3.27;2.97;;;6.70;56.90;;;;;;5071362;28;21181;-50
2021/04/14 02:13:28;;;;;;;3.77;2.73;;;6.80;57.60;;;;;;5071095;28;20623;-51
2021/04/14 02:15:55;;;;;;;4.10;3.77;;;6.70;57.70;;;;;;5071536;28;20657;-50
2021/04/14 02:18:22;;;;;;;3.87;3.50;;;6.80;57.90;;;;;;5071047;28;20634;-50
2021/04/14 02:20:48;;;;;;;3.17;2.87;;;6.80;58.00;;;;;;5071034;28;20743;-50
2021/04/14 02:23:20;;;;;;;3.60;3.20;;;6.90;58.10;;;;;;5071305;28;20618;-51
2021/04/14 02:25:47;;;;;;;3.97;3.13;;;7.00;58.00;;;;;;5071081;28;20654;-50
2021/04/14 02:28:14;;;;;;;8.80;3.20;;;6.90;57.60;;;;;;5070703;28;20634;-50
2021/04/14 02:30:42;;;;;;;3.50;3.20;;;6.90;57.60;;;;;;5070863;28;20671;-50
2021/04/14 02:33:09;;;;;;;22.97;3.77;;;6.90;57.80;;;;;;5072079;28;20664;-50
2021/04/14 02:35:35;;;;;;;3.80;3.50;;;6.90;58.00;;;;;;5075438;28;20662;-50
2021/04/14 02:38:02;;;;;;;4.40;2.60;;;7.00;58.20;;;;;;5075567;28;20626;-50
2021/04/14 02:40:29;;;;;;;4.33;2.47;;;6.90;58.20;;;;;;5075867;28;20688;-50
2021/04/14 02:42:56;;;;;;;5.20;3.43;;;6.90;58.20;;;;;;5075273;28;20743;-51
2021/04/14 02:45:25;;;;;;;4.73;3.27;;;6.90;58.30;;;;;;5075070;28;20665;-50
2021/04/14 02:47:52;;;;;;;4.50;3.67;;;6.90;58.30;;;;;;5074474;28;20629;-51
2021/04/14 02:50:20;;;;;;;6.13;3.87;;;6.90;58.20;;;;;;5074855;28;21198;-50
2021/04/14 02:52:46;;;;;;;5.20;3.77;;;6.90;58.30;;;;;;5074881;28;21068;-51
2021/04/14 02:55:13;;;;;;;4.70;4.30;;;6.90;58.40;;;;;;5074646;28;21090;-51
2021/04/14 02:57:40;;;;;;;5.37;3.13;;;6.90;58.50;;;;;;5074469;28;20624;-51
2021/04/14 03:00:08;;;;;;;7.63;5.13;;;6.80;58.60;;;;;;5074935;28;20674;-51
2021/04/14 03:02:35;;;;;;;7.87;4.03;;;6.90;58.90;;;;;;5074877;28;20621;-51
2021/04/14 03:05:03;;;;;;;5.07;3.67;;;6.90;58.90;;;;;;5074983;28;20649;-51
2021/04/14 03:07:29;;;;;;;4.43;4.03;;;6.90;58.90;;;;;;5074048;28;21017;-51
2021/04/14 03:09:56;;;;;;;5.00;3.90;;;6.90;58.90;;;;;;5074569;28;21177;-51
2021/04/14 03:12:23;;;;;;;5.57;4.53;;;6.90;58.90;;;;;;5074273;28;20661;-53
2021/04/14 03:14:50;;;;;;;4.73;4.33;;;6.90;58.80;;;;;;5074933;28;20645;-51
2021/04/14 03:17:16;;;;;;;4.77;4.37;;;6.90;58.80;;;;;;5074378;28;21401;-51
2021/04/14 03:19:43;;;;;;;4.50;4.10;;;6.90;58.80;;;;;;5074876;28;20736;-50
2021/04/14 03:22:11;;;;;;;4.07;3.70;;;6.90;59.20;;;;;;5074136;28;20617;-51
2021/04/14 03:24:38;;;;;;;5.10;4.60;;;6.80;59.30;;;;;;5075024;28;20644;-50
2021/04/14 03:27:05;;;;;;;5.00;4.40;;;6.80;59.40;;;;;;5072020;28;20633;-51
2021/04/14 03:29:32;;;;;;;5.30;4.47;;;6.80;59.60;;;;;;5072093;28;20971;-50
2021/04/14 03:31:59;;;;;;;11.73;5.17;;;6.80;59.60;;;;;;5074851;28;20657;-50
2021/04/14 03:34:25;;;;;;;8.33;4.70;;;6.80;59.70;;;;;;5074199;28;20704;-51
2021/04/14 03:36:53;;;;;;;5.33;4.40;;;6.80;59.70;;;;;;5074470;28;20657;-51
2021/04/14 03:39:20;;;;;;;4.50;4.20;;;6.70;60.00;;;;;;5067383;28;20695;-52
2021/04/14 03:41:47;;;;;;;5.30;4.60;;;6.70;60.20;;;;;;5073914;28;20679;-52
2021/04/14 03:44:14;;;;;;;4.80;4.30;;;6.70;60.40;;;;;;5073425;28;20660;-52
2021/04/14 03:46:40;;;;;;;5.23;4.77;;;6.80;60.30;;;;;;5073618;28;20620;-52
2021/04/14 03:49:07;;;;;;;4.93;3.97;;;6.80;60.20;;;;;;5073541;28;20698;-52
2021/04/14 03:51:34;;;;;;;4.87;4.47;;;6.80;60.40;;;;;;5073283;28;20629;-52
2021/04/14 03:54:00;;;;;;;8.70;5.77;;;6.80;60.40;;;;;;5073928;28;20682;-52
2021/04/14 03:56:28;;;;;;;7.27;4.93;;;6.80;60.10;;;;;;5073019;28;20663;-52
2021/04/14 03:58:55;;;;;;;5.67;5.03;;;6.80;60.10;;;;;;5073277;28;20625;-52
2021/04/14 04:01:23;;;;;;;6.37;5.37;;;6.80;60.10;;;;;;5073685;28;20649;-52
2021/04/14 04:03:51;;;;;;;5.40;4.30;;;6.80;59.90;;;;;;5073458;28;20655;-52
2021/04/14 04:06:18;;;;;;;5.63;4.23;;;6.80;59.80;;;;;;5073189;28;21201;-52
2021/04/14 04:08:44;;;;;;;6.40;4.33;;;6.70;59.80;;;;;;5073246;28;21201;-52
2021/04/14 04:11:11;;;;;;;6.13;4.80;;;6.80;59.80;;;;;;5073539;28;21185;-50
2021/04/14 04:13:39;;;;;;;4.80;4.40;;;6.70;59.70;;;;;;5073138;28;20649;-52
2021/04/14 04:16:06;;;;;;;5.87;4.47;;;6.70;59.80;;;;;;5072788;28;21229;-52
2021/04/14 04:18:33;;;;;;;7.50;5.23;;;6.70;59.90;;;;;;5073040;28;20630;-52
2021/04/14 04:20:59;;;;;;;5.83;4.70;;;6.70;60.00;;;;;;5073847;28;20690;-51
2021/04/14 04:23:26;;;;;;;4.97;4.57;;;6.70;60.00;;;;;;5073590;28;20629;-52
2021/04/14 04:25:53;;;;;;;4.10;3.73;;;6.70;60.00;;;;;;5072546;28;20652;-51
2021/04/14 04:28:20;;;;;;;4.60;4.10;;;6.60;59.90;;;;;;5072269;28;20637;-51
2021/04/14 04:30:49;;;;;;;7.40;4.60;;;6.70;60.60;;;;;;5072668;28;20659;-51
2021/04/14 04:33:15;;;;;;;4.67;3.63;;;6.60;59.90;;;;;;5059032;28;20718;-52
2021/04/14 04:35:42;;;;;;;5.40;4.10;;;6.60;59.90;;;;;;5066261;28;20657;-52
2021/04/14 04:38:09;;;;;;;6.53;4.63;;;6.60;60.00;;;;;;5072364;28;20617;-52
2021/04/14 04:40:36;;;;;;;4.37;3.97;;;6.60;60.40;;;;;;5072496;28;20924;-52
2021/04/14 04:43:03;;;;;;;5.90;5.40;;;6.60;60.40;;;;;;5072809;28;20613;-52
2021/04/14 04:45:30;;;;;;;5.30;4.90;;;6.60;60.40;;;;;;5072450;28;20653;-52
2021/04/14 04:47:58;;;;;;;4.80;4.43;;;6.60;60.40;;;;;;5072172;28;20629;-52
2021/04/14 04:50:27;;;;;;;8.87;5.60;;;6.60;60.40;;;;;;5069227;28;20625;-52
2021/04/14 04:52:54;;;;;;;6.10;5.50;;;6.50;60.40;;;;;;5071735;28;20706;-57
2021/04/14 04:55:21;;;;;;;5.70;5.17;;;6.50;60.70;;;;;;5071527;28;21038;-52
2021/04/14 04:57:48;;;;;;;5.20;4.70;;;6.50;61.00;;;;;;5071288;28;20629;-51
2021/04/14 05:00:16;;;;;;;6.57;5.97;;;6.50;61.10;;;;;;5071439;28;20617;-52
2021/04/14 05:02:43;;;;;;;6.00;4.30;;;6.50;61.20;;;;;;5069278;28;20705;-51
2021/04/14 05:05:13;;;;;;;5.67;5.17;;;6.40;61.70;;;;;;5066812;28;21604;-52
2021/04/14 05:07:39;;;;;;;5.50;5.00;;;6.40;62.00;;;;;;5069289;28;20629;-53
2021/04/14 05:10:07;;;;;;;9.23;5.53;;;6.40;62.20;;;;;;5071578;28;20629;-52
2021/04/14 05:12:34;;;;;;;4.80;4.00;;;6.40;62.40;;;;;;5064678;28;20710;-50
2021/04/14 05:15:01;;;;;;;6.57;5.93;;;6.30;62.90;;;;;;5071173;28;20730;-50
2021/04/14 05:17:28;;;;;;;4.43;4.10;;;6.30;63.30;;;;;;5071235;28;20718;-50
2021/04/14 05:19:54;;;;;;;5.07;4.57;;;6.30;63.90;;;;;;5065144;28;20630;-50
2021/04/14 05:22:24;;;;;;;5.93;4.87;;;6.30;64.00;;;;;;5071938;28;20625;-50
2021/04/14 05:24:51;;;;;;;5.37;4.77;;;6.40;64.10;;;;;;5064049;28;20661;-50
2021/04/14 05:27:17;;;;;;;5.87;4.90;;;6.40;64.00;;;;;;5069609;28;20664;-50
2021/04/14 05:29:44;;;;;;;5.87;5.27;;;6.40;64.20;;;;;;5063234;28;20630;-51
2021/04/14 05:32:11;;;;;;;8.13;5.10;;;6.40;64.20;;;;;;5066940;28;20739;-51
2021/04/14 05:34:38;;;;;;;6.43;5.73;;;6.40;64.00;;;;;;5068880;28;20822;-53
2021/04/14 05:37:05;;;;;;;8.97;4.90;;;6.50;64.10;;;;;;5070752;28;20637;-52
2021/04/14 05:39:32;;;;;;;5.50;4.67;;;6.50;64.20;;;;;;5068176;28;20625;-50
2021/04/14 05:41:59;;;;;;;5.43;4.93;;;6.50;63.90;;;;;;5065794;28;20629;-53
2021/04/14 05:44:26;;;;;;;11.03;6.07;;;6.50;64.00;;;;;;5067204;28;20718;-53
2021/04/14 05:46:52;;;;;;;8.73;5.90;;;6.50;64.10;;;;;;5069802;28;20621;-51
2021/04/14 05:49:19;;;;;;;5.63;5.00;;;6.50;64.20;;;;;;5070770;28;20989;-51
2021/04/14 05:51:46;;;;;;;5.10;4.60;;;6.50;64.20;;;;;;5066919;28;20629;-51
2021/04/14 05:54:13;;;;;;;4.97;4.50;;;6.50;64.00;;;;;;5065129;28;20681;-51
2021/04/14 05:56:41;;;;;;;4.87;4.47;;;6.50;64.00;;;;;;5063493;28;20630;-52
2021/04/14 05:59:07;;;;;;;5.73;4.90;;;6.60;64.70;;;;;;5063553;28;20642;-51
2021/04/14 06:01:35;;;;;;;18.43;4.80;;;6.60;64.80;;;;;;5064407;28;20629;-50
2021/04/14 06:04:01;;;;;;;5.20;4.70;;;6.60;64.40;;;;;;5065819;28;21247;-51
2021/04/14 06:06:28;;;;;;;5.73;4.47;;;6.70;64.30;;;;;;5065208;28;21169;-51
2021/04/14 06:08:55;;;;;;;5.63;4.60;;;6.70;64.10;;;;;;5065570;28;20664;-51
2021/04/14 06:11:22;;;;;;;6.13;5.20;;;6.80;64.10;;;;;;5070577;28;20617;-52
2021/04/14 06:13:50;;;;;;;6.83;5.37;;;6.80;63.70;;;;;;5069201;28;20693;-49
2021/04/14 06:16:16;;;;;;;6.80;6.00;;;6.90;63.90;;;;;;5067837;28;20653;-50
2021/04/14 06:18:43;;;;;;;4.70;4.30;;;7.00;63.70;;;;;;5069382;28;20661;-50
2021/04/14 06:21:10;;;;;;;4.80;3.30;;;7.10;63.70;;;;;;5070506;28;20618;-50
2021/04/14 06:23:37;;;;;;;5.33;4.03;;;7.20;64.00;;;;;;5069613;28;21031;-50
2021/04/14 06:26:16;;;;;;;4.30;3.90;;;7.40;63.50;;;;;;5051057;28;20683;-50
2021/04/14 06:28:43;;;;;;;4.73;3.60;;;7.60;63.00;;;;;;5058121;28;20697;-50
2021/04/14 06:31:11;;;;;;;4.57;3.70;;;7.80;62.00;;;;;;5068238;28;20628;-49
2021/04/14 06:33:40;;;;;;;8.77;3.80;;;8.00;60.80;;;;;;5070493;28;21018;-50
2021/04/14 06:36:07;;;;;;;4.83;4.30;;;8.20;59.80;;;;;;5070151;28;20652;-49
2021/04/14 06:38:37;;;;;;;4.53;3.90;;;8.30;59.40;;;;;;5069482;28;21312;-49
2021/04/14 06:41:36;;;;;;;4.00;3.60;;;8.40;59.20;;;;;;5066583;28;21147;-50
2021/04/14 06:44:06;;;;;;;4.50;3.60;;;8.50;59.00;;;;;;5066825;28;20617;-50
2021/04/14 06:46:34;;;;;;;3.90;3.60;;;8.60;58.80;;;;;;5069333;28;20630;-50
2021/04/14 06:49:03;;;;;;;3.70;3.30;;;8.70;58.40;;;;;;5070148;28;20739;-51
2021/04/14 06:51:31;;;;;;;7.73;4.17;;;8.90;58.10;;;;;;5070600;28;20652;-51
2021/04/14 06:54:03;;;;;;;5.17;3.47;;;9.10;57.50;;;;;;5070447;28;20996;-51
2021/04/14 06:56:30;;;;;;;7.07;4.50;;;9.30;57.20;;;;;;5070285;28;20756;-51
2021/04/14 06:59:01;;;;;;;3.30;3.00;;;9.30;56.70;;;;;;5070591;28;20674;-51
2021/04/14 07:01:30;;;;;;;3.87;3.50;;;9.40;56.30;;;;;;5070715;28;20690;-51
2021/04/14 07:04:01;;;;;;;4.80;4.20;;;9.30;55.90;;;;;;5069731;28;21170;-51
2021/04/14 07:06:29;;;;;;;6.20;4.20;;;9.30;55.70;;;;;;5069946;28;20637;-51
2021/04/14 07:09:04;;;;;;;4.97;4.37;;;9.30;55.70;;;;;;5067150;28;21189;-51
2021/04/14 07:11:31;;;;;;;7.70;5.17;;;9.30;55.70;;;;;;5067566;28;20632;-51
2021/04/14 07:13:58;;;;;;;3.80;3.47;;;9.30;55.50;;;;;;5069975;28;20653;-51
2021/04/14 07:16:49;;;;;;;6.47;3.73;;;9.20;56.00;;;;;;5067693;28;20632;-51
2021/04/14 07:19:22;;;;;;;4.67;3.90;;;9.20;55.70;;;;;;5066801;28;20636;-51
2021/04/14 07:21:50;;;;;;;4.40;4.00;;;9.20;55.80;;;;;;5074254;28;20625;-51
2021/04/14 07:24:22;;;;;;;5.20;4.50;;;9.30;55.80;;;;;;5070890;28;20640;-51
2021/04/14 07:26:51;;;;;;;4.93;3.70;;;9.30;55.60;;;;;;5072187;28;20629;-52
2021/04/14 07:29:26;;;;;;;3.90;3.60;;;9.20;55.40;;;;;;5072832;28;20998;-52
2021/04/14 07:31:56;;;;;;;5.83;3.97;;;9.30;55.50;;;;;;5074031;28;20640;-50
2021/04/14 07:34:30;;;;;;;4.60;4.10;;;9.40;55.60;;;;;;5074195;28;21440;-49
2021/04/14 07:37:00;;;;;;;3.80;3.50;;;9.60;55.40;;;;;;5073487;28;21115;-50
2021/04/14 07:39:30;;;;;;;3.43;3.03;;;9.80;55.10;;;;;;5071321;28;20995;-50
2021/04/14 07:42:05;;;;;;;4.80;2.83;;;10.10;53.70;;;;;;5070256;28;20679;-50
2021/04/14 07:44:35;;;;;;;3.20;3.00;;;10.40;52.80;;;;;;5071075;28;20708;-50
2021/04/14 07:47:01;;;;;;;3.30;2.90;;;10.60;52.10;;;;;;5064502;28;20706;-50
2021/04/14 07:49:31;;;;;;;6.10;3.37;;;10.70;51.20;;;;;;5069533;28;20632;-50
2021/04/14 07:51:58;;;;;;;6.90;3.83;;;10.80;50.60;;;;;;5067829;28;20676;-50
2021/04/14 07:54:26;;;;;;;4.70;4.30;;;10.90;50.50;;;;;;5071889;28;20711;-49
2021/04/14 07:56:54;;;;;;;3.33;3.03;;;11.00;50.60;;;;;;5070768;28;20629;-50
2021/04/14 07:59:25;;;;;;;7.43;3.17;;;11.10;50.00;;;;;;5070456;28;21070;-50
2021/04/14 08:01:54;;;;;;;4.10;3.13;;;11.30;49.10;;;;;;5070944;28;20773;-51
2021/04/14 08:04:26;;;;;;;4.83;2.80;;;11.40;48.50;;;;;;5075252;28;20667;-50
2021/04/14 08:06:53;;;;;;;4.47;2.87;;;11.70;47.60;;;;;;5069823;28;20675;-50
2021/04/14 08:09:21;;;;;;;3.90;3.07;;;11.90;47.10;;;;;;5073126;28;20678;-50
2021/04/14 08:11:48;;;;;;;4.40;3.17;;;12.10;46.40;;;;;;5069983;28;20962;-50
2021/04/14 08:14:19;;;;;;;4.00;2.30;;;12.30;45.70;;;;;;5072026;28;20672;-50
2021/04/14 08:16:48;;;;;;;8.20;3.43;;;12.50;45.20;;;;;;5072666;28;21045;-50
2021/04/14 08:19:21;;;;;;;3.60;2.50;;;12.60;44.50;;;;;;5070305;28;21307;-50
2021/04/14 08:21:56;;;;;;;2.33;2.07;;;12.80;43.90;;;;;;5067986;28;20674;-51
2021/04/14 08:24:29;;;;;;;6.83;2.67;;;12.70;43.40;;;;;;5062741;28;22289;-51
2021/04/14 08:26:57;;;;;;;3.40;2.30;;;12.70;43.60;;;;;;5069973;28;20748;-51
2021/04/14 08:29:24;;;;;;;3.43;2.40;;;12.80;42.90;;;;;;5070327;28;20641;-50
2021/04/14 08:31:51;;;;;;;3.23;2.33;;;13.00;42.50;;;;;;5068020;28;20633;-51
2021/04/14 08:34:21;;;;;;;2.27;1.80;;;13.10;41.30;;;;;;5070998;28;20680;-51
2021/04/14 08:36:51;;;;;;;3.30;2.70;;;13.10;40.70;;;;;;5067532;28;21115;-52
2021/04/14 08:39:21;;;;;;;4.33;3.10;;;13.10;40.70;;;;;;5066938;28;20703;-51
2021/04/14 08:41:47;;;;;;;3.17;2.40;;;13.00;40.30;;;;;;5069215;28;20675;-50
2021/04/14 08:44:17;;;;;;;2.03;1.80;;;13.10;40.10;;;;;;5069635;28;20710;-51
2021/04/14 08:46:44;;;;;;;2.40;2.20;;;13.00;40.30;;;;;;5071963;28;20610;-51
2021/04/14 08:49:12;;;;;;;3.30;2.00;;;13.00;39.90;;;;;;5071662;28;21219;-51
2021/04/14 08:51:40;;;;;;;2.87;2.60;;;13.10;40.00;;;;;;5071907;28;20629;-51
2021/04/14 08:54:07;;;;;;;1.73;1.60;;;13.10;39.50;;;;;;5071900;28;21218;-51
2021/04/14 08:56:35;;;;;;;2.87;2.50;;;13.20;38.60;;;;;;5071750;28;20634;-51
2021/04/14 08:59:02;;;;;;;2.53;2.00;;;13.30;38.60;;;;;;5070039;28;20642;-50
2021/04/14 09:01:31;;;;;;;4.40;2.33;;;13.30;38.30;;;;;;5067520;28;20649;-51
2021/04/14 09:04:00;;;;;;;4.90;2.03;;;13.30;36.70;;;;;;5067418;28;20748;-50
2021/04/14 09:06:27;;;;;;;3.50;2.43;;;13.30;36.50;;;;;;5071422;28;20625;-51
2021/04/14 09:08:54;;;;;;;4.17;2.50;;;13.20;35.20;;;;;;5068656;28;20625;-50
2021/04/14 09:11:23;;;;;;;1.90;1.80;;;13.10;34.20;;;;;;5064971;28;20683;-50
2021/04/14 09:14:00;;;;;;;6.73;2.10;;;13.00;34.90;;;;;;5069671;28;20692;-51
2021/04/14 09:16:29;;;;;;;3.80;1.70;;;12.80;35.30;;;;;;5069999;28;20675;-50
2021/04/14 09:19:09;;;;;;;3.47;1.97;;;12.70;35.80;;;;;;5070899;28;20690;-50
2021/04/14 09:21:44;;;;;;;8.00;3.03;;;12.80;36.30;;;;;;5070662;28;20625;-50
2021/04/14 09:24:44;;;;;;;3.17;2.10;;;12.80;35.30;;;;;;5070496;28;21238;-50
2021/04/14 09:27:35;;;;;;;8.03;2.50;;;12.90;35.20;;;;;;5069874;28;20629;-51
2021/04/14 09:30:14;;;;;;;2.73;1.83;;;13.00;35.30;;;;;;5064240;28;20637;-52
2021/04/14 09:32:55;;;;;;;4.40;2.90;;;13.20;34.90;;;;;;5069714;28;20671;-51
2021/04/14 09:35:57;;;;;;;5.10;1.70;;;13.40;34.10;;;;;;5070772;28;20710;-50
2021/04/14 09:38:32;;;;;;;3.17;2.03;;;13.30;33.50;;;;;;5004816;28;20647;-50
2021/04/14 09:41:14;;;;;;;4.00;1.47;;;13.10;32.20;;;;;;5005692;28;21022;-50
2021/04/14 09:43:42;;;;;;;1.43;1.30;;;12.90;31.60;;;;;;5041514;28;20613;-51
2021/04/14 09:46:12;;;;;;;4.40;1.90;;;12.70;31.90;;;;;;5069083;28;20990;-51
2021/04/14 09:48:40;;;;;;;1.57;1.47;;;12.60;32.20;;;;;;5070145;28;20678;-51
2021/04/14 09:51:18;;;;;;;2.80;1.77;;;12.50;31.50;;;;;;5070911;28;21282;-51
2021/04/14 09:53:45;;;;;;;3.03;1.63;;;12.30;32.00;;;;;;5070381;28;20660;-51
2021/04/14 09:56:15;;;;;;;3.07;1.63;;;12.20;32.30;;;;;;5070085;28;20669;-51
2021/04/14 09:58:44;;;;;;;4.53;1.47;;;12.10;32.20;;;;;;5070970;28;20682;-51
2021/04/14 10:01:15;;;;;;;2.43;1.43;;;12.10;32.30;;;;;;5070976;28;20629;-51
2021/04/14 10:03:44;;;;;;;2.27;2.10;;;12.10;32.30;;;;;;5070786;28;20624;-51
2021/04/14 10:06:13;;;;;;;1.90;1.60;;;12.20;31.40;;;;;;5062772;28;21472;-51
2021/04/14 10:08:42;;;;;;;1.50;1.40;;;12.50;31.10;;;;;;5069110;28;20625;-51
2021/04/14 10:11:09;;;;;;;1.73;1.63;;;12.90;30.20;;;;;;5064259;28;20628;-51
2021/04/14 10:13:37;;;;;;;6.53;3.03;;;13.50;28.60;;;;;;5070130;28;20688;-51
2021/04/14 10:16:04;;;;;;;2.27;1.50;;;14.00;28.60;;;;;;5070243;28;20717;-51
2021/04/14 10:18:33;;;;;;;2.23;1.70;;;14.60;28.70;;;;;;5069610;28;20991;-52
2021/04/14 10:21:14;;;;;;;1.63;1.40;;;14.80;28.30;;;;;;5071265;28;21237;-51
2021/04/14 10:23:40;;;;;;;3.07;1.40;;;14.70;27.40;;;;;;5070528;28;20625;-51
2021/04/14 10:26:08;;;;;;;1.40;1.30;;;14.70;27.30;;;;;;5066115;28;20661;-51
2021/04/14 10:28:35;;;;;;;2.57;2.23;;;14.70;27.60;;;;;;5065903;28;20620;-51
2021/04/14 10:31:07;;;;;;;1.80;1.70;;;14.90;28.30;;;;;;5069354;28;20641;-51
2021/04/14 10:33:35;;;;;;;3.53;2.70;;;15.70;28.20;;;;;;5062042;28;21225;-51
2021/04/14 10:36:10;;;;;;;2.27;1.67;;;16.60;28.20;;;;;;5064422;28;20726;-51
2021/04/14 10:38:37;;;;;;;2.00;1.90;;;17.20;27.60;;;;;;5064125;28;20711;-52
2021/04/14 10:41:14;;;;;;;1.83;1.73;;;17.50;27.00;;;;;;5068294;28;20629;-51
2021/04/14 10:43:41;;;;;;;3.13;2.30;;;17.70;25.90;;;;;;5069901;28;20674;-51
2021/04/14 10:46:11;;;;;;;1.50;1.40;;;18.00;25.60;;;;;;5069444;28;20653;-51
2021/04/14 10:48:40;;;;;;;3.40;2.47;;;18.30;25.00;;;;;;5067311;28;20994;-52
2021/04/14 10:51:09;;;;;;;3.00;2.23;;;18.30;24.20;;;;;;5064533;28;20634;-51
2021/04/14 10:53:38;;;;;;;2.80;2.50;;;18.00;24.00;;;;;;5068678;28;20711;-52
2021/04/14 10:56:06;;;;;;;2.90;2.70;;;18.00;24.80;;;;;;5073769;28;20722;-51
2021/04/14 10:58:33;;;;;;;3.50;1.90;;;18.20;25.00;;;;;;5071106;28;20686;-52
2021/04/14 11:01:09;;;;;;;2.57;1.87;;;18.30;24.60;;;;;;5071197;28;21006;-51
2021/04/14 11:03:36;;;;;;;2.00;1.80;;;17.70;24.30;;;;;;5071268;28;20625;-51
2021/04/14 11:06:06;;;;;;;2.63;1.63;;;17.10;24.90;;;;;;5064332;28;20709;-51
2021/04/14 11:08:33;;;;;;;2.70;2.33;;;16.70;25.50;;;;;;5071447;28;20617;-51
2021/04/14 11:11:00;;;;;;;3.03;1.87;;;16.20;25.70;;;;;;5071320;28;20618;-53
2021/04/14 11:13:28;;;;;;;4.07;2.50;;;16.00;26.00;;;;;;5068373;28;21109;-51
2021/04/14 11:15:55;;;;;;;3.40;2.23;;;15.90;25.60;;;;;;5067249;28;20659;-52
2021/04/14 11:18:30;;;;;;;2.60;2.40;;;15.90;25.80;;;;;;5071484;28;21029;-50
2021/04/14 11:21:00;;;;;;;2.77;2.20;;;16.20;26.00;;;;;;5069692;28;20620;-49
2021/04/14 11:23:29;;;;;;;2.00;1.90;;;16.40;25.10;;;;;;5066827;28;20629;-51
2021/04/14 11:26:07;;;;;;;2.40;2.13;;;16.50;24.90;;;;;;5069947;28;20656;-50
2021/04/14 11:28:42;;;;;;;3.53;1.73;;;16.30;24.60;;;;;;5069663;28;20621;-51
2021/04/14 11:31:09;;;;;;;3.40;2.77;;;16.10;24.00;;;;;;5068940;28;20786;-51
2021/04/14 11:33:37;;;;;;;2.37;2.13;;;15.90;23.50;;;;;;5072750;28;20665;-51
2021/04/14 11:36:05;;;;;;;2.60;2.40;;;15.70;24.00;;;;;;5071674;28;20754;-51
2021/04/14 11:38:35;;;;;;;4.47;2.27;;;15.60;24.70;;;;;;5074117;28;21036;-51
2021/04/14 11:41:13;;;;;;;2.30;2.10;;;15.30;25.70;;;;;;5072497;28;20629;-51
2021/04/14 11:43:40;;;;;;;2.70;2.50;;;15.20;25.60;;;;;;5067679;28;20621;-51
2021/04/14 11:46:09;;;;;;;3.57;2.33;;;15.00;26.90;;;;;;5066353;28;20657;-51
2021/04/14 11:48:38;;;;;;;4.27;3.03;;;14.80;27.70;;;;;;5071114;28;20635;-51
2021/04/14 11:51:17;;;;;;;3.63;2.77;;;14.60;27.90;;;;;;5070345;28;21031;-51
2021/04/14 11:53:50;;;;;;;3.80;2.43;;;14.50;28.00;;;;;;5071401;28;20726;-52
2021/04/14 11:56:32;;;;;;;4.47;2.30;;;14.30;27.90;;;;;;5068786;28;20653;-51
2021/04/14 11:58:59;;;;;;;4.20;2.63;;;14.40;28.10;;;;;;5070949;28;21279;-51
2021/04/14 12:01:27;;;;;;;2.67;2.47;;;14.50;27.90;;;;;;5072526;28;20738;-51
2021/04/14 12:03:54;;;;;;;5.80;2.30;;;14.40;27.80;;;;;;5071380;28;20629;-51
2021/04/14 12:06:21;;;;;;;2.23;1.70;;;14.20;27.50;;;;;;5071174;28;20613;-51
2021/04/14 12:08:48;;;;;;;4.37;2.93;;;13.90;27.30;;;;;;5068918;28;21299;-51
2021/04/14 12:11:17;;;;;;;6.70;3.30;;;13.70;27.40;;;;;;5070950;28;20645;-51
2021/04/14 12:13:44;;;;;;;26.10;5.97;;;13.50;27.70;;;;;;5072078;28;20725;-51
2021/04/14 12:16:11;;;;;;;3.47;2.50;;;13.40;28.00;;;;;;5072331;28;20797;-51
2021/04/14 12:18:38;;;;;;;3.43;3.10;;;13.30;28.60;;;;;;5072199;28;20628;-52
2021/04/14 12:21:05;;;;;;;14.20;4.17;;;13.30;28.50;;;;;;5072849;28;20684;-52
2021/04/14 12:23:32;;;;;;;1.57;1.47;;;13.30;28.60;;;;;;5072231;28;20633;-52
2021/04/14 12:25:59;;;;;;;4.40;2.40;;;13.40;28.80;;;;;;5071996;28;20706;-52
2021/04/14 12:28:26;;;;;;;10.07;3.80;;;13.40;28.50;;;;;;5070480;28;20708;-52
2021/04/14 12:30:53;;;;;;;9.73;4.80;;;13.50;28.50;;;;;;5071259;28;21169;-52
2021/04/14 12:33:20;;;;;;;14.67;4.00;;;13.60;28.40;;;;;;5071980;28;20663;-52
2021/04/14 12:35:47;;;;;;;4.60;3.50;;;13.70;28.30;;;;;;5071824;28;20719;-52
2021/04/14 12:38:15;;;;;;;7.10;2.07;;;13.90;28.40;;;;;;5071679;28;20629;-52
2021/04/14 12:40:42;;;;;;;2.23;2.13;;;14.20;28.20;;;;;;5071388;28;20644;-51
2021/04/14 12:43:10;;;;;;;3.80;2.97;;;14.60;27.50;;;;;;5061601;28;20676;-51
2021/04/14 12:45:39;;;;;;;2.20;2.00;;;14.80;27.10;;;;;;5070455;28;21307;-53
2021/04/14 12:48:09;;;;;;;3.93;2.43;;;14.90;27.80;;;;;;5070483;28;20757;-52
2021/04/14 12:50:36;;;;;;;2.87;2.67;;;14.80;28.50;;;;;;5066100;28;20708;-51
2021/04/14 12:53:03;;;;;;;3.73;2.10;;;14.70;28.70;;;;;;5071167;28;20648;-51
2021/04/14 12:55:37;;;;;;;2.23;2.03;;;14.60;28.90;;;;;;5071725;28;20735;-51
2021/04/14 12:58:03;;;;;;;3.90;2.07;;;14.50;28.80;;;;;;5070703;28;22024;-51
2021/04/14 13:00:31;;;;;;;3.10;1.90;;;14.40;28.90;;;;;;5071496;28;21247;-52